Time;durP1;ratioP1;P1;durP2;ratioP2;P2;SDS_P1;SDS_P2;PMS_P1;PMS_P2;Temp;Humidity;BMP_temperature;BMP_pressure;BME280_temperature;BME280_humidity;BME280_pressure;Samples;Min_cycle;Max_cycle;Signal;HPM_P1;HPM_P2
2024/01/25 00:02:19;;;;;;;21.35;6.13;;;7.30;99.90;;;;;;5090695;28;20066;-64
2024/01/25 00:04:44;;;;;;;23.30;5.72;;;7.20;99.90;;;;;;5092258;28;20070;-64
2024/01/25 00:07:10;;;;;;;30.70;7.57;;;7.10;99.90;;;;;;5089483;28;20450;-64
2024/01/25 00:09:36;;;;;;;21.70;5.97;;;7.10;99.90;;;;;;5091965;28;20461;-64
2024/01/25 00:12:02;;;;;;;21.48;6.57;;;7.10;99.90;;;;;;5097718;28;20040;-64
2024/01/25 00:14:27;;;;;;;21.58;6.80;;;7.10;99.90;;;;;;5096676;28;20055;-64
2024/01/25 00:16:53;;;;;;;28.30;6.63;;;7.00;99.90;;;;;;5099009;28;20032;-64
2024/01/25 00:19:18;;;;;;;22.85;6.00;;;7.00;99.90;;;;;;5098830;28;20113;-64
2024/01/25 00:21:44;;;;;;;19.35;7.00;;;7.00;99.90;;;;;;5098279;28;20036;-64
2024/01/25 00:24:12;;;;;;;30.35;5.45;;;6.90;99.90;;;;;;5097497;28;20046;-64
2024/01/25 00:26:38;;;;;;;20.85;6.47;;;6.90;99.90;;;;;;5098368;28;20044;-64
2024/01/25 00:29:04;;;;;;;16.55;5.53;;;6.90;99.90;;;;;;5097238;28;20044;-64
2024/01/25 00:31:30;;;;;;;19.52;5.25;;;6.80;99.90;;;;;;5098580;28;20064;-64
2024/01/25 00:33:57;;;;;;;20.95;5.20;;;6.80;99.90;;;;;;5097860;28;20044;-64
2024/01/25 00:36:23;;;;;;;19.23;5.05;;;6.80;99.90;;;;;;5097859;28;20039;-64
2024/01/25 00:38:49;;;;;;;22.17;5.10;;;6.80;99.90;;;;;;5098727;28;20437;-64
2024/01/25 00:41:21;;;;;;;21.40;6.25;;;6.80;99.90;;;;;;5097133;28;20075;-64
2024/01/25 00:43:47;;;;;;;18.77;4.97;;;6.80;99.90;;;;;;5096545;28;20051;-64
2024/01/25 00:46:14;;;;;;;23.33;6.47;;;6.80;99.90;;;;;;5097116;28;20040;-64
2024/01/25 00:48:42;;;;;;;20.60;5.47;;;6.80;99.90;;;;;;5097565;28;20392;-64
2024/01/25 00:51:18;;;;;;;36.38;7.55;;;6.80;99.90;;;;;;5096900;28;20036;-64
2024/01/25 00:53:44;;;;;;;25.90;6.38;;;6.80;99.90;;;;;;5097140;28;20043;-64
2024/01/25 00:56:10;;;;;;;21.92;6.80;;;6.80;99.90;;;;;;5096973;28;20048;-64
2024/01/25 00:58:36;;;;;;;25.13;6.00;;;6.80;99.90;;;;;;5098161;28;20113;-64
2024/01/25 01:01:02;;;;;;;19.50;5.45;;;6.80;99.90;;;;;;5098561;28;20067;-64
2024/01/25 01:03:28;;;;;;;21.33;5.28;;;6.80;99.90;;;;;;5096170;28;20040;-64
2024/01/25 01:05:54;;;;;;;17.00;6.20;;;6.80;99.90;;;;;;5098308;28;20044;-64
2024/01/25 01:08:20;;;;;;;19.77;5.32;;;6.80;99.90;;;;;;5097221;28;20123;-64
2024/01/25 01:10:46;;;;;;;19.33;5.20;;;6.90;99.90;;;;;;5096313;28;20081;-64
2024/01/25 01:13:12;;;;;;;24.90;5.70;;;6.90;99.90;;;;;;5098312;28;20370;-64
2024/01/25 01:15:38;;;;;;;21.17;4.47;;;6.90;99.90;;;;;;5097339;28;20081;-64
2024/01/25 01:18:05;;;;;;;15.43;5.03;;;6.90;99.90;;;;;;5096465;28;20485;-64
2024/01/25 01:20:31;;;;;;;19.27;5.85;;;6.90;99.90;;;;;;5097678;28;20037;-64
2024/01/25 01:22:56;;;;;;;27.33;7.03;;;6.90;99.90;;;;;;5093453;28;20061;-64
2024/01/25 01:25:22;;;;;;;14.80;5.15;;;6.90;99.90;;;;;;5092924;28;20040;-64
2024/01/25 01:27:48;;;;;;;19.70;4.82;;;6.80;99.90;;;;;;5094825;28;20051;-64
2024/01/25 01:30:13;;;;;;;22.27;5.47;;;6.80;99.90;;;;;;5094794;28;20089;-64
2024/01/25 01:32:39;;;;;;;19.38;7.03;;;6.80;99.90;;;;;;5092600;28;20044;-64
2024/01/25 01:35:05;;;;;;;20.20;4.60;;;6.80;99.90;;;;;;5093726;28;20041;-64
2024/01/25 01:37:31;;;;;;;23.48;6.80;;;6.70;99.90;;;;;;5093291;28;20044;-64
2024/01/25 01:39:58;;;;;;;20.67;5.65;;;6.70;99.90;;;;;;5092763;28;20036;-64
2024/01/25 01:42:24;;;;;;;13.05;5.47;;;6.70;99.90;;;;;;5094784;28;20043;-64
2024/01/25 01:44:51;;;;;;;17.10;5.00;;;6.70;99.90;;;;;;5093559;28;20044;-64
2024/01/25 01:47:17;;;;;;;28.17;5.78;;;6.70;99.90;;;;;;5092642;28;20044;-64
2024/01/25 01:49:43;;;;;;;18.42;5.57;;;6.70;99.90;;;;;;5076230;28;20032;-64
2024/01/25 01:52:09;;;;;;;25.45;5.20;;;6.70;99.90;;;;;;5093238;28;20424;-64
2024/01/25 01:54:36;;;;;;;20.48;4.70;;;6.60;99.90;;;;;;5092417;28;20160;-64
2024/01/25 01:57:02;;;;;;;22.80;7.88;;;6.50;99.90;;;;;;5094734;28;20458;-64
2024/01/25 01:59:29;;;;;;;20.23;6.53;;;6.60;99.90;;;;;;5093910;28;20063;-64
2024/01/25 02:01:54;;;;;;;26.98;6.20;;;6.60;99.90;;;;;;5093175;28;20481;-64
2024/01/25 02:04:20;;;;;;;19.77;5.25;;;6.50;99.90;;;;;;5093336;28;20048;-64
2024/01/25 02:06:46;;;;;;;19.05;5.97;;;6.50;99.90;;;;;;5109238;28;20072;-64
2024/01/25 02:09:12;;;;;;;26.73;5.65;;;6.50;99.90;;;;;;5092837;28;20044;-64
2024/01/25 02:11:38;;;;;;;27.60;6.90;;;6.50;99.90;;;;;;5092901;28;20043;-64
2024/01/25 02:14:05;;;;;;;21.85;5.63;;;6.50;99.90;;;;;;5109426;28;20393;-64
2024/01/25 02:16:30;;;;;;;27.25;6.78;;;6.50;99.90;;;;;;5092522;28;20104;-64
2024/01/25 02:18:59;;;;;;;28.33;6.32;;;6.40;99.90;;;;;;5093876;28;20078;-64
2024/01/25 02:21:24;;;;;;;30.83;6.35;;;6.40;99.90;;;;;;5102533;28;20075;-64
2024/01/25 02:23:50;;;;;;;20.73;6.88;;;6.30;99.90;;;;;;5093802;28;20075;-64
2024/01/25 02:26:16;;;;;;;30.17;6.43;;;6.30;99.90;;;;;;5093857;28;20036;-64
2024/01/25 02:28:42;;;;;;;23.65;7.25;;;6.30;99.90;;;;;;5091586;28;20040;-64
2024/01/25 02:31:07;;;;;;;25.08;5.93;;;6.30;99.90;;;;;;5094057;28;20393;-64
2024/01/25 02:33:33;;;;;;;23.88;6.78;;;6.30;99.90;;;;;;5092504;28;20050;-64
2024/01/25 02:35:58;;;;;;;23.27;7.13;;;6.20;99.90;;;;;;5092785;28;20043;-64
2024/01/25 02:38:24;;;;;;;21.45;6.85;;;6.20;99.90;;;;;;5092103;28;20472;-64
2024/01/25 02:40:50;;;;;;;39.88;8.20;;;6.20;99.90;;;;;;5092301;28;20048;-64
2024/01/25 02:43:25;;;;;;;18.40;6.20;;;6.20;99.90;;;;;;5091588;28;20128;-64
2024/01/25 02:45:50;;;;;;;16.92;5.32;;;6.10;99.90;;;;;;5092205;28;20036;-64
2024/01/25 02:48:16;;;;;;;21.67;6.15;;;6.10;99.90;;;;;;5092292;28;20101;-64
2024/01/25 02:50:42;;;;;;;25.00;6.13;;;6.00;99.90;;;;;;5091077;28;20051;-64
2024/01/25 02:53:07;;;;;;;34.10;7.47;;;6.10;99.90;;;;;;5092004;28;20063;-64
2024/01/25 02:55:33;;;;;;;27.42;6.30;;;6.10;99.90;;;;;;5093123;28;20040;-64
2024/01/25 02:57:59;;;;;;;24.20;7.80;;;6.00;99.90;;;;;;5092743;28;20032;-64
2024/01/25 03:00:24;;;;;;;25.70;6.32;;;6.00;99.90;;;;;;5091729;28;20044;-64
2024/01/25 03:02:50;;;;;;;24.35;6.20;;;6.00;99.90;;;;;;5091634;28;20029;-64
2024/01/25 03:05:16;;;;;;;25.55;6.10;;;6.00;99.90;;;;;;5074660;28;20042;-64
2024/01/25 03:07:42;;;;;;;22.45;5.95;;;6.00;99.90;;;;;;5091577;28;20435;-64
2024/01/25 03:10:08;;;;;;;23.58;5.80;;;6.00;99.90;;;;;;5092044;28;20024;-64
2024/01/25 03:12:33;;;;;;;28.70;6.93;;;6.00;99.90;;;;;;5091611;28;20063;-64
2024/01/25 03:14:59;;;;;;;29.77;7.90;;;5.90;99.90;;;;;;5093824;28;20109;-64
2024/01/25 03:17:25;;;;;;;26.70;7.10;;;5.90;99.90;;;;;;5092062;28;20172;-64
2024/01/25 03:19:51;;;;;;;27.30;6.80;;;5.90;99.90;;;;;;5076874;28;20453;-64
2024/01/25 03:22:16;;;;;;;30.65;6.45;;;5.90;99.90;;;;;;5071376;28;20075;-64
2024/01/25 03:24:42;;;;;;;25.27;6.05;;;5.90;99.90;;;;;;5070462;28;20072;-64
2024/01/25 03:27:13;;;;;;;23.85;6.30;;;5.90;99.90;;;;;;5080186;28;20125;-64
2024/01/25 03:29:41;;;;;;;38.28;6.70;;;5.80;99.90;;;;;;5092091;28;20086;-64
2024/01/25 03:32:07;;;;;;;22.40;5.55;;;5.80;99.90;;;;;;5090625;28;20040;-64
2024/01/25 03:34:33;;;;;;;29.75;6.35;;;5.80;99.90;;;;;;5091584;28;20047;-64
2024/01/25 03:36:58;;;;;;;23.17;7.30;;;5.80;99.90;;;;;;5092917;28;20042;-64
2024/01/25 03:39:24;;;;;;;24.38;6.97;;;5.80;99.90;;;;;;5091865;28;20119;-64
2024/01/25 03:41:49;;;;;;;23.48;6.53;;;5.70;99.90;;;;;;5092518;28;20127;-64
2024/01/25 03:44:15;;;;;;;24.55;7.45;;;5.70;99.90;;;;;;5090823;28;20136;-64
2024/01/25 03:46:41;;;;;;;15.27;5.30;;;5.70;99.90;;;;;;5089947;28;20552;-64
2024/01/25 03:49:06;;;;;;;17.30;6.18;;;5.60;99.90;;;;;;5091383;28;20040;-64
2024/01/25 03:51:32;;;;;;;21.95;6.10;;;5.60;99.90;;;;;;5090825;28;20074;-64
2024/01/25 03:53:58;;;;;;;18.92;6.40;;;5.60;99.90;;;;;;5091904;28;20068;-64
2024/01/25 03:56:24;;;;;;;26.23;7.78;;;5.60;99.90;;;;;;5090777;28;20054;-64
2024/01/25 03:58:49;;;;;;;26.50;6.47;;;5.50;99.90;;;;;;5090680;28;20056;-64
2024/01/25 04:01:15;;;;;;;26.80;5.65;;;5.50;99.90;;;;;;5090115;28;20036;-64
2024/01/25 04:03:41;;;;;;;22.02;6.22;;;5.50;99.90;;;;;;5091083;28;20079;-64
2024/01/25 04:06:07;;;;;;;20.77;7.38;;;5.50;99.90;;;;;;5090720;28;20546;-64
2024/01/25 04:08:32;;;;;;;31.23;6.45;;;5.40;99.90;;;;;;5108024;28;20458;-64
2024/01/25 04:10:58;;;;;;;21.63;6.90;;;5.40;99.90;;;;;;5092046;28;20123;-64
2024/01/25 04:13:24;;;;;;;22.85;5.45;;;5.40;99.90;;;;;;5090300;28;20040;-64
2024/01/25 04:15:50;;;;;;;24.60;6.28;;;5.40;99.90;;;;;;5090797;28;20040;-64
2024/01/25 04:18:16;;;;;;;31.13;8.07;;;5.30;99.90;;;;;;5090931;28;20048;-64
2024/01/25 04:20:43;;;;;;;23.63;7.30;;;5.40;99.90;;;;;;5089953;28;20041;-64
2024/01/25 04:23:08;;;;;;;26.98;6.97;;;5.30;99.90;;;;;;5090722;28;20036;-64
2024/01/25 04:25:34;;;;;;;25.08;5.22;;;5.40;99.90;;;;;;5091013;28;20040;-64
2024/01/25 04:28:00;;;;;;;20.05;6.60;;;5.40;99.90;;;;;;5073249;28;20051;-64
2024/01/25 04:30:25;;;;;;;37.78;7.70;;;5.40;99.90;;;;;;5091910;28;20042;-64
2024/01/25 04:32:51;;;;;;;27.45;7.82;;;5.40;99.90;;;;;;5091187;28;20046;-64
2024/01/25 04:35:17;;;;;;;17.98;6.13;;;5.40;99.90;;;;;;5091459;28;20552;-64
2024/01/25 04:37:42;;;;;;;25.55;6.00;;;5.40;99.90;;;;;;5090093;28;20040;-64
2024/01/25 04:40:08;;;;;;;28.92;6.25;;;5.30;99.90;;;;;;5091058;28;20124;-64
2024/01/25 04:42:34;;;;;;;27.15;6.88;;;5.30;99.90;;;;;;5089791;28;20577;-64
2024/01/25 04:44:59;;;;;;;19.60;6.38;;;5.20;99.90;;;;;;5090720;28;20044;-64
2024/01/25 04:47:25;;;;;;;22.92;5.95;;;5.30;99.90;;;;;;5090403;28;20110;-64
2024/01/25 04:49:51;;;;;;;23.75;7.38;;;5.30;99.90;;;;;;5091045;28;20085;-64
2024/01/25 04:52:16;;;;;;;38.42;8.20;;;5.30;99.90;;;;;;5090685;28;20036;-64
2024/01/25 04:54:42;;;;;;;25.73;6.97;;;5.40;99.90;;;;;;5091404;28;20028;-64
2024/01/25 04:57:08;;;;;;;29.42;7.65;;;5.30;99.90;;;;;;5092149;28;20036;-63
2024/01/25 04:59:33;;;;;;;33.80;5.85;;;5.30;99.90;;;;;;5093760;28;20056;-64
2024/01/25 05:02:00;;;;;;;27.58;6.35;;;5.30;99.90;;;;;;5094272;28;20481;-64
2024/01/25 05:04:26;;;;;;;25.63;7.72;;;5.40;99.90;;;;;;5093169;28;20044;-64
2024/01/25 05:06:51;;;;;;;21.40;8.75;;;5.40;99.90;;;;;;5095493;28;20044;-64
2024/01/25 05:09:17;;;;;;;27.58;7.22;;;5.40;99.90;;;;;;5095388;28;20120;-64
2024/01/25 05:11:42;;;;;;;33.10;7.28;;;5.40;99.90;;;;;;5093108;28;20473;-64
2024/01/25 05:14:08;;;;;;;26.88;7.07;;;5.30;99.90;;;;;;5095060;28;20043;-64
2024/01/25 05:16:35;;;;;;;24.40;7.13;;;5.40;99.90;;;;;;5093244;28;20140;-64
2024/01/25 05:19:01;;;;;;;27.10;6.82;;;5.40;99.90;;;;;;5094228;28;20047;-64
2024/01/25 05:21:27;;;;;;;24.65;6.22;;;5.40;99.90;;;;;;5095226;28;20127;-64
2024/01/25 05:23:52;;;;;;;25.48;6.53;;;5.40;99.90;;;;;;5110486;28;20130;-64
2024/01/25 05:26:18;;;;;;;18.83;6.00;;;5.40;99.90;;;;;;5095141;28;20036;-64
2024/01/25 05:28:44;;;;;;;30.55;7.15;;;5.40;99.90;;;;;;5094318;28;20047;-64
2024/01/25 05:31:12;;;;;;;28.45;9.52;;;5.30;99.90;;;;;;5076288;28;20036;-64
2024/01/25 05:33:39;;;;;;;29.85;6.80;;;5.40;99.90;;;;;;5093665;28;20043;-64
2024/01/25 05:36:05;;;;;;;25.33;6.32;;;5.30;99.90;;;;;;5093930;28;20484;-64
2024/01/25 05:38:32;;;;;;;31.42;6.35;;;5.30;99.90;;;;;;5092332;28;20101;-64
2024/01/25 05:40:58;;;;;;;28.52;6.88;;;5.30;99.90;;;;;;5092983;28;20044;-64
2024/01/25 05:43:24;;;;;;;19.95;5.80;;;5.30;99.90;;;;;;5093414;28;20051;-64
2024/01/25 05:45:49;;;;;;;23.75;6.88;;;5.30;99.90;;;;;;5093221;28;20125;-64
2024/01/25 05:48:15;;;;;;;27.77;5.88;;;5.20;99.90;;;;;;5093291;28;20036;-64
2024/01/25 05:50:41;;;;;;;21.88;6.70;;;5.20;99.90;;;;;;5093380;28;20397;-64
2024/01/25 05:53:07;;;;;;;24.10;5.88;;;5.20;99.90;;;;;;5094028;28;20076;-64
2024/01/25 05:55:32;;;;;;;21.73;6.32;;;5.10;99.90;;;;;;5110067;28;20051;-64
2024/01/25 05:57:58;;;;;;;39.60;6.80;;;5.20;99.90;;;;;;5094202;28;20040;-64
2024/01/25 06:00:24;;;;;;;18.05;6.35;;;5.10;99.90;;;;;;5092282;28;20060;-64
2024/01/25 06:02:50;;;;;;;24.70;6.30;;;5.00;99.90;;;;;;5092949;28;20048;-64
2024/01/25 06:05:16;;;;;;;19.42;6.13;;;5.10;99.90;;;;;;5092799;28;20094;-64
2024/01/25 06:07:43;;;;;;;20.92;8.68;;;5.00;99.90;;;;;;5091832;28;20139;-64
2024/01/25 06:10:09;;;;;;;22.63;6.50;;;4.90;99.90;;;;;;5093292;28;20039;-64
2024/01/25 06:12:35;;;;;;;20.00;6.95;;;4.90;99.90;;;;;;5092823;28;20040;-64
2024/01/25 06:15:01;;;;;;;20.02;6.70;;;4.80;99.90;;;;;;5092003;28;20041;-64
2024/01/25 06:17:26;;;;;;;22.10;6.63;;;4.90;99.90;;;;;;5092789;28;20177;-64
2024/01/25 06:19:52;;;;;;;26.25;5.78;;;4.90;99.90;;;;;;5092009;28;20039;-64
2024/01/25 06:22:18;;;;;;;21.85;6.47;;;4.90;99.90;;;;;;5092591;28;20040;-64
2024/01/25 06:24:43;;;;;;;29.42;7.40;;;4.90;99.90;;;;;;5093788;28;20382;-64
2024/01/25 06:27:12;;;;;;;34.92;9.13;;;4.90;99.90;;;;;;5091768;28;20048;-64
2024/01/25 06:29:38;;;;;;;24.23;6.72;;;4.90;99.90;;;;;;5092528;28;20047;-64
2024/01/25 06:32:04;;;;;;;21.58;5.95;;;4.90;99.90;;;;;;5092044;28;20028;-64
2024/01/25 06:34:29;;;;;;;27.90;8.23;;;4.80;99.90;;;;;;5091462;28;20040;-64
2024/01/25 06:36:55;;;;;;;30.73;10.50;;;4.80;99.90;;;;;;5092515;28;20173;-64
2024/01/25 06:39:20;;;;;;;34.67;7.63;;;4.80;99.90;;;;;;5092680;28;20127;-64
2024/01/25 06:41:46;;;;;;;26.55;6.05;;;4.90;99.90;;;;;;5092819;28;20472;-64
2024/01/25 06:44:12;;;;;;;28.20;7.05;;;4.90;99.90;;;;;;5075247;28;20046;-64
2024/01/25 06:46:38;;;;;;;27.95;7.72;;;4.80;99.90;;;;;;5093451;28;20090;-64
2024/01/25 06:49:04;;;;;;;22.00;6.70;;;4.90;99.90;;;;;;5091175;28;20040;-64
2024/01/25 06:51:30;;;;;;;20.15;7.97;;;4.80;99.90;;;;;;5091945;28;20044;-64
2024/01/25 06:53:55;;;;;;;29.77;7.85;;;4.80;99.90;;;;;;5108164;28;20115;-64
2024/01/25 06:56:21;;;;;;;26.20;7.00;;;4.80;99.90;;;;;;5070988;28;20045;-64
2024/01/25 06:58:47;;;;;;;26.10;7.03;;;4.80;99.90;;;;;;5085044;28;20051;-64
2024/01/25 07:01:13;;;;;;;31.23;6.57;;;4.80;99.90;;;;;;5092696;28;20036;-64
2024/01/25 07:03:39;;;;;;;25.42;6.50;;;4.80;99.90;;;;;;5092854;28;20044;-64
2024/01/25 07:06:05;;;;;;;27.35;6.65;;;4.80;99.90;;;;;;5092499;28;20062;-64
2024/01/25 07:08:31;;;;;;;24.88;5.82;;;4.80;99.90;;;;;;5074804;28;20094;-64
2024/01/25 07:10:59;;;;;;;18.00;4.57;;;4.80;99.90;;;;;;5092488;28;20032;-64
2024/01/25 07:13:25;;;;;;;25.98;5.47;;;4.80;99.90;;;;;;5091358;28;20564;-64
2024/01/25 07:15:50;;;;;;;27.50;6.13;;;4.70;99.90;;;;;;5091981;28;20044;-64
2024/01/25 07:18:16;;;;;;;20.73;6.60;;;4.80;99.90;;;;;;5091108;28;20428;-64
2024/01/25 07:20:42;;;;;;;24.88;6.70;;;4.80;99.90;;;;;;5092017;28;20489;-64
2024/01/25 07:23:07;;;;;;;25.83;6.28;;;4.70;99.90;;;;;;5090524;28;20392;-64
2024/01/25 07:25:33;;;;;;;24.98;7.38;;;4.70;99.90;;;;;;5091106;28;20073;-64
2024/01/25 07:27:58;;;;;;;29.40;7.13;;;4.70;99.90;;;;;;5090796;28;20052;-64
2024/01/25 07:30:25;;;;;;;25.52;6.40;;;4.80;99.90;;;;;;5090787;28;20036;-64
2024/01/25 07:32:51;;;;;;;29.02;7.88;;;4.70;99.90;;;;;;5092700;28;20080;-64
2024/01/25 07:35:16;;;;;;;25.63;6.88;;;4.80;99.90;;;;;;5091251;28;20455;-64
2024/01/25 07:37:42;;;;;;;26.73;7.47;;;4.70;99.90;;;;;;5090578;28;20464;-64
2024/01/25 07:40:11;;;;;;;26.13;6.95;;;4.70;99.90;;;;;;5091263;28;20036;-64
2024/01/25 07:42:37;;;;;;;31.67;7.43;;;4.70;99.90;;;;;;5090717;28;20075;-64
2024/01/25 07:45:03;;;;;;;32.45;8.07;;;4.60;99.90;;;;;;5086705;28;20090;-64
2024/01/25 07:47:29;;;;;;;24.52;6.93;;;4.60;99.90;;;;;;5091576;28;20477;-64
2024/01/25 07:49:55;;;;;;;34.67;8.40;;;4.60;99.90;;;;;;5091366;28;20119;-64
2024/01/25 07:52:21;;;;;;;18.45;6.13;;;4.60;99.90;;;;;;5091738;28;20115;-64
2024/01/25 07:54:46;;;;;;;20.20;7.10;;;4.50;99.90;;;;;;5091000;28;20428;-64
2024/01/25 07:57:12;;;;;;;27.38;6.28;;;4.50;99.90;;;;;;5091136;28;20380;-64
2024/01/25 07:59:38;;;;;;;21.15;5.72;;;4.40;99.90;;;;;;5089505;28;20565;-64
2024/01/25 08:02:03;;;;;;;32.03;8.02;;;4.50;99.90;;;;;;5091278;28;20401;-64
2024/01/25 08:04:29;;;;;;;32.30;8.30;;;4.50;99.90;;;;;;5107962;28;20991;-64
2024/01/25 08:06:55;;;;;;;17.02;4.78;;;4.40;99.90;;;;;;5090439;28;20040;-64
2024/01/25 08:09:20;;;;;;;24.38;6.40;;;4.50;99.90;;;;;;5069653;28;20509;-64
2024/01/25 08:11:46;;;;;;;30.10;6.25;;;4.40;99.90;;;;;;5080717;28;20050;-64
2024/01/25 08:14:12;;;;;;;24.05;6.15;;;4.40;99.90;;;;;;5088136;28;20396;-64
2024/01/25 08:16:37;;;;;;;22.23;7.07;;;4.50;99.90;;;;;;5088750;28;20052;-64
2024/01/25 08:19:04;;;;;;;32.63;6.95;;;4.40;99.90;;;;;;5089896;28;20040;-64
2024/01/25 08:21:30;;;;;;;23.35;5.85;;;4.40;99.90;;;;;;5087559;28;20100;-64
2024/01/25 08:23:56;;;;;;;22.08;6.68;;;4.40;99.90;;;;;;5088826;28;20051;-64
2024/01/25 08:26:22;;;;;;;24.23;6.53;;;4.40;99.90;;;;;;5085752;28;20096;-64
2024/01/25 08:28:47;;;;;;;29.58;6.35;;;4.40;99.90;;;;;;5087280;28;20032;-64
2024/01/25 08:31:13;;;;;;;31.40;8.18;;;4.40;99.90;;;;;;5090725;28;20202;-64
2024/01/25 08:33:44;;;;;;;31.63;7.85;;;4.40;99.90;;;;;;5091855;28;20028;-64
2024/01/25 08:36:10;;;;;;;28.23;7.63;;;4.50;99.90;;;;;;5092297;28;20048;-64
2024/01/25 08:38:36;;;;;;;16.35;5.97;;;4.40;99.90;;;;;;5093607;28;20115;-64
2024/01/25 08:41:02;;;;;;;23.63;7.18;;;4.40;99.90;;;;;;5091935;28;20465;-64
2024/01/25 08:43:28;;;;;;;29.77;7.22;;;4.40;99.90;;;;;;5092007;28;20059;-64
2024/01/25 08:45:53;;;;;;;26.63;9.00;;;4.40;99.90;;;;;;5090148;28;20093;-64
2024/01/25 08:48:19;;;;;;;27.02;9.30;;;4.40;99.90;;;;;;5091392;28;20415;-64
2024/01/25 08:50:45;;;;;;;30.08;8.75;;;4.50;99.90;;;;;;5092456;28;20036;-64
2024/01/25 08:53:11;;;;;;;36.15;8.30;;;4.50;99.90;;;;;;5091763;28;20620;-64
2024/01/25 08:55:36;;;;;;;29.08;9.77;;;4.60;99.90;;;;;;5090700;28;20071;-64
2024/01/25 08:58:02;;;;;;;27.40;8.85;;;4.50;99.90;;;;;;5092006;28;20055;-64
2024/01/25 09:00:28;;;;;;;34.08;10.90;;;4.60;99.90;;;;;;5088382;28;20098;-64
2024/01/25 09:02:53;;;;;;;31.30;9.18;;;4.60;99.90;;;;;;5089023;28;20135;-64
2024/01/25 09:05:19;;;;;;;31.67;9.20;;;4.80;99.90;;;;;;5091251;28;20054;-64
2024/01/25 09:07:45;;;;;;;35.78;10.27;;;4.70;99.90;;;;;;5091067;28;20055;-64
2024/01/25 09:10:11;;;;;;;32.47;7.95;;;4.80;99.90;;;;;;5101505;28;20032;-64
2024/01/25 09:12:38;;;;;;;26.67;7.90;;;4.80;99.90;;;;;;5098848;28;20377;-64
2024/01/25 09:15:04;;;;;;;27.25;7.93;;;4.90;99.90;;;;;;5092131;28;20537;-64
2024/01/25 09:17:29;;;;;;;24.95;7.20;;;4.90;99.90;;;;;;5091037;28;20051;-64
2024/01/25 09:19:58;;;;;;;30.05;7.90;;;4.90;99.90;;;;;;5091886;28;20055;-64
2024/01/25 09:22:24;;;;;;;24.52;8.48;;;5.00;99.90;;;;;;5091240;28;20062;-64
2024/01/25 09:24:50;;;;;;;30.80;7.38;;;5.00;99.90;;;;;;5090404;28;20055;-64
2024/01/25 09:27:15;;;;;;;25.60;7.35;;;5.00;99.90;;;;;;5089446;28;20040;-64
2024/01/25 09:29:42;;;;;;;26.30;7.18;;;5.00;99.90;;;;;;5091749;28;20578;-64
2024/01/25 09:32:08;;;;;;;25.30;8.00;;;5.10;99.90;;;;;;5091950;28;20107;-65
2024/01/25 09:34:38;;;;;;;30.20;8.98;;;5.10;99.90;;;;;;5091958;28;20137;-64
2024/01/25 09:37:04;;;;;;;30.25;7.25;;;5.10;99.90;;;;;;5090408;28;20496;-64
2024/01/25 09:39:31;;;;;;;23.42;7.50;;;5.10;99.90;;;;;;5090772;28;20433;-64
2024/01/25 09:41:57;;;;;;;31.75;8.55;;;5.10;99.90;;;;;;5091001;28;20123;-64
2024/01/25 09:44:23;;;;;;;29.63;7.80;;;5.10;99.90;;;;;;5089308;28;20043;-64
2024/01/25 09:46:51;;;;;;;23.85;7.05;;;5.10;99.90;;;;;;5090789;28;20059;-64
2024/01/25 09:49:16;;;;;;;30.20;8.38;;;5.20;99.90;;;;;;5090956;28;20086;-64
2024/01/25 09:51:43;;;;;;;34.78;6.80;;;5.20;99.90;;;;;;5088708;28;20044;-64
2024/01/25 09:54:09;;;;;;;29.40;7.95;;;5.20;99.90;;;;;;5090413;28;20870;-64
2024/01/25 09:56:35;;;;;;;33.28;8.82;;;5.20;99.90;;;;;;5090628;28;20495;-64
2024/01/25 09:59:02;;;;;;;33.25;7.82;;;5.20;99.90;;;;;;5089229;28;20064;-64
2024/01/25 10:01:28;;;;;;;25.65;7.03;;;5.30;99.90;;;;;;5091111;28;20586;-61
2024/01/25 10:03:57;;;;;;;27.63;7.32;;;5.30;99.90;;;;;;5106500;28;20556;-61
2024/01/25 10:06:23;;;;;;;31.92;9.48;;;5.30;99.90;;;;;;5089512;28;20044;-61
2024/01/25 10:08:49;;;;;;;23.55;8.10;;;5.40;99.90;;;;;;5090161;28;20050;-61
2024/01/25 10:11:16;;;;;;;40.53;9.98;;;5.40;99.90;;;;;;5106865;28;20043;-61
2024/01/25 10:13:46;;;;;;;37.35;8.07;;;5.40;99.90;;;;;;5089706;28;20044;-61
2024/01/25 10:16:16;;;;;;;32.47;8.73;;;5.50;99.90;;;;;;5073447;28;20044;-61
2024/01/25 10:18:43;;;;;;;34.20;8.02;;;5.50;99.90;;;;;;5073765;28;20044;-61
2024/01/25 10:21:10;;;;;;;29.55;8.27;;;5.60;99.90;;;;;;5087492;28;20230;-61
2024/01/25 10:23:37;;;;;;;27.95;7.82;;;5.70;99.90;;;;;;5089830;28;20047;-61
2024/01/25 10:26:05;;;;;;;27.35;7.55;;;5.90;99.90;;;;;;5091024;28;20148;-61
2024/01/25 10:28:32;;;;;;;33.15;8.73;;;6.00;99.90;;;;;;5089539;28;20124;-61
2024/01/25 10:31:02;;;;;;;28.50;6.78;;;6.10;99.90;;;;;;5090141;28;20436;-61
2024/01/25 10:33:29;;;;;;;33.45;8.15;;;6.20;99.90;;;;;;5089820;28;20193;-61
2024/01/25 10:35:59;;;;;;;27.67;6.95;;;6.40;99.90;;;;;;5090078;28;20393;-61
2024/01/25 10:38:26;;;;;;;30.15;8.20;;;6.40;99.90;;;;;;5088392;28;20039;-61
2024/01/25 10:40:53;;;;;;;29.70;9.30;;;6.40;99.90;;;;;;5088691;28;20098;-61
2024/01/25 10:43:19;;;;;;;39.90;8.32;;;6.50;99.90;;;;;;5089302;28;20055;-61
2024/01/25 10:45:46;;;;;;;32.53;8.23;;;6.50;99.90;;;;;;5088748;28;20097;-62
2024/01/25 10:48:12;;;;;;;41.92;9.88;;;6.50;99.90;;;;;;5088471;28;20100;-61
2024/01/25 10:50:39;;;;;;;27.70;8.40;;;6.60;99.90;;;;;;5088843;28;20048;-62
2024/01/25 10:53:07;;;;;;;31.50;8.07;;;6.60;99.90;;;;;;5088804;28;20036;-61
2024/01/25 10:55:33;;;;;;;28.13;7.35;;;6.70;99.90;;;;;;5071747;28;20049;-61
2024/01/25 10:58:00;;;;;;;40.50;8.43;;;6.70;99.90;;;;;;5091744;28;20123;-61
2024/01/25 11:00:26;;;;;;;30.33;7.10;;;6.70;99.90;;;;;;5090940;28;20060;-61
2024/01/25 11:02:51;;;;;;;31.42;8.07;;;6.80;99.90;;;;;;5090694;28;20054;-61
2024/01/25 11:05:21;;;;;;;29.23;8.52;;;6.80;99.90;;;;;;5073315;28;20123;-61
2024/01/25 11:07:50;;;;;;;30.05;8.02;;;6.90;99.90;;;;;;5071342;28;20051;-61
2024/01/25 11:10:17;;;;;;;26.95;8.10;;;6.90;99.90;;;;;;5089299;28;20093;-62
2024/01/25 11:13:03;;;;;;;26.67;8.30;;;7.00;99.90;;;;;;5108548;28;20119;-61
2024/01/25 11:15:34;;;;;;;31.20;6.97;;;7.00;99.90;;;;;;5088463;28;20101;-64
2024/01/25 11:18:01;;;;;;;37.65;9.75;;;7.20;99.90;;;;;;5090370;28;20044;-65
2024/01/25 11:20:28;;;;;;;30.70;8.07;;;7.20;99.90;;;;;;5092604;28;20468;-64
2024/01/25 11:23:04;;;;;;;25.00;6.13;;;7.30;99.90;;;;;;5091415;28;20032;-65
2024/01/25 11:25:32;;;;;;;28.30;7.15;;;7.30;99.90;;;;;;5091271;28;20097;-65
2024/01/25 11:27:59;;;;;;;28.10;6.50;;;7.40;99.90;;;;;;5091486;28;20054;-65
2024/01/25 11:30:29;;;;;;;24.85;8.25;;;7.50;99.90;;;;;;5090828;28;20388;-65
2024/01/25 11:32:55;;;;;;;31.33;8.45;;;7.60;99.90;;;;;;5091562;28;20071;-65
2024/01/25 11:35:21;;;;;;;30.20;8.35;;;7.60;99.90;;;;;;5091391;28;20071;-64
2024/01/25 11:37:48;;;;;;;20.83;6.78;;;7.70;99.90;;;;;;5090217;28;20105;-64
2024/01/25 11:40:15;;;;;;;27.02;6.38;;;7.70;99.90;;;;;;5091359;28;20039;-64
2024/01/25 11:42:43;;;;;;;26.80;6.90;;;7.80;99.90;;;;;;5091087;28;20044;-64
2024/01/25 11:45:10;;;;;;;28.48;6.75;;;7.80;99.90;;;;;;5090401;28;20044;-65
2024/01/25 11:47:37;;;;;;;28.63;12.70;;;7.90;99.90;;;;;;5090936;28;20119;-64
2024/01/25 11:50:04;;;;;;;23.40;8.73;;;7.90;99.90;;;;;;5091400;28;20105;-64
2024/01/25 11:52:33;;;;;;;24.88;8.10;;;8.00;99.90;;;;;;5091321;28;20044;-64
2024/01/25 11:54:59;;;;;;;24.65;9.50;;;8.00;99.90;;;;;;5091250;28;20040;-65
2024/01/25 11:57:25;;;;;;;26.75;6.57;;;7.90;99.90;;;;;;5090202;28;20044;-64
2024/01/25 11:59:51;;;;;;;35.40;7.40;;;7.90;99.90;;;;;;5090676;28;20131;-64
2024/01/25 12:02:17;;;;;;;23.83;6.57;;;7.80;99.90;;;;;;5090869;28;20050;-64
2024/01/25 12:04:43;;;;;;;23.63;5.68;;;7.80;99.90;;;;;;5091197;28;20044;-64
2024/01/25 12:07:09;;;;;;;29.98;9.43;;;7.80;99.90;;;;;;5090443;28;20051;-64
2024/01/25 12:09:35;;;;;;;29.05;8.40;;;7.80;99.90;;;;;;5074142;28;20048;-65
2024/01/25 12:12:01;;;;;;;30.30;8.10;;;7.80;99.90;;;;;;5091610;28;20040;-64
2024/01/25 12:14:28;;;;;;;31.33;8.70;;;7.80;99.90;;;;;;5090597;28;20042;-65
2024/01/25 12:16:56;;;;;;;30.42;10.35;;;7.80;99.90;;;;;;5090861;28;20445;-65
2024/01/25 12:19:22;;;;;;;19.38;5.93;;;7.80;99.90;;;;;;5091018;28;20040;-65
2024/01/25 12:21:48;;;;;;;18.30;5.57;;;7.70;99.90;;;;;;5090633;28;20044;-64
2024/01/25 12:24:14;;;;;;;24.33;7.40;;;7.70;99.90;;;;;;5090793;28;20115;-65
2024/01/25 12:26:41;;;;;;;21.50;7.65;;;7.70;99.90;;;;;;5089762;28;20044;-65
2024/01/25 12:29:08;;;;;;;20.85;6.65;;;7.60;99.90;;;;;;5090826;28;20115;-64
2024/01/25 12:31:34;;;;;;;26.05;7.30;;;7.60;99.90;;;;;;5090516;28;20550;-64
2024/01/25 12:34:00;;;;;;;24.50;7.68;;;7.60;99.90;;;;;;5090001;28;20073;-64
2024/01/25 12:36:26;;;;;;;22.60;6.10;;;7.60;99.90;;;;;;5090456;28;20044;-64
2024/01/25 12:38:52;;;;;;;27.58;6.72;;;7.70;99.90;;;;;;5090725;28;20126;-64
2024/01/25 12:41:17;;;;;;;19.88;5.32;;;7.70;99.90;;;;;;5089908;28;20040;-64